Taunton 2W

41° 53' 56"N, 71° 08' 19"W, Elevation 50 ft.
Eastern Time

Hourly observations for the last 72 hours

Date Time Temperature (°F) Humi-
dity

(%)
Wind
(mph)
Pressure Rain (in) Sun
(W/m2)
UV ET
(in)
Air Dew 6 Hour 1 Hr 3 Hr 6 Hr Day
Alt
(in)
Sea
Level

(mb)
Max Min
26 20:00 59.7 43.0 69.4 59.7 54 WSW 6 G 15 29.75 1007.3 0.70 0 0.0 0.142
26 19:00 63.6 43.6 48 W 6 G 16 29.72 1006.4 0.70 51 0.0 0.135
26 18:00 66.5 45.7 47 WNW 10 G 21 29.68 1005.1 0.70 243 0.0 0.123
26 17:00 67.6 46.1 46 WSW 8 G 17 29.65 1004.0 0.70 469 1.3 0.107
26 16:00 67.9 48.1 49 W 13 G 20 29.63 1003.4 0.70 193 2.6 0.090
26 15:00 67.7 50.5 54 W 13 G 19 29.61 1002.8 0.70 814 4.0 0.071
26 14:00 68.6 52.3 68.8 54.2 56 SW 11 G 21 29.60 1002.5 0.01 0.70 1000 5.2 0.050
26 13:00 67.1 55.4 66 WSW 10 G 19 29.59 1002.2 0.70 429 5.4 0.034
26 12:00 65.7 57.6 75 W 9 G 16 29.59 1002.0 0.70 410 4.2 0.018
26 11:00 63.1 59.2 87 WSW 5 G 11 29.57 1001.3 0.01 0.70 907 4.7 0.008
26 10:00 57.5 56.4 96 SW 9 G 16 29.58 1001.6 0.70 237 1.4 0.003
26 09:00 54.9 54.3 98 SSW 6 G 10 29.57 1001.5 0.01 0.70 109 0.5 0.001
26 08:00 54.3 53.7 55.8 54.1 98 SSW 6 G 11 29.58 1001.6 0.08 0.56 0.69 0.69 26 0.0 0.000
26 07:00 54.2 53.6 98 SSE 4 G 10 29.56 1001.2 0.24 0.61 7 0.0 0.000
26 06:00 54.8 54.2 98 SE 1 G 4 29.55 1000.8 0.24 0.37 0 0.0 0.000
26 05:00 55.3 54.7 98 SSE 0 G 3 29.55 1000.8 0.13 0.13 0.13 0 0.0 0.000
26 04:00 55.6 55.0 98 SSE 6 G 11 29.57 1001.5 0.00 0 0.0 0.000
26 03:00 55.6 55.0 98 SSE 4 G 9 29.59 1002.0 0.00 0 0.0 0.000
26 02:00 55.5 54.9 57.5 55.5 98 S 7 G 13 29.61 1002.8 0.05 0.00 0 0.0 0.000
26 01:00 56.6 56.0 98 S 5 G 15 29.63 1003.3 0.00 0 0.0 0.000
26 00:00 57.4 56.8 98 SSE 4 G 11 29.65 1004.0 1.32 0 0.0 0.028
25 23:00 56.0 55.4 98 SE 2 G 7 29.67 1004.9 0.03 0.05 1.32 0 0.0 0.028
25 22:00 56.3 55.5 97 SE 5 G 11 29.69 1005.6 1.29 0 0.0 0.028
25 21:00 56.2 55.4 97 ESE 6 G 10 29.72 1006.5 0.02 1.29 0 0.0 0.028
25 20:00 57.2 56.4 57.3 55.6 97 SSE 11 G 17 29.74 1007.0 0.06 0.36 1.05 1.27 0 0.0 0.028
25 19:00 56.8 56.0 97 SSE 7 G 14 29.74 1007.1 0.15 1.21 0 0.0 0.028
25 18:00 56.1 55.0 96 SE 4 G 13 29.75 1007.7 0.15 1.06 11 0.0 0.027
25 17:00 55.6 54.5 96 ESE 8 G 16 29.77 1008.3 0.41 0.69 0.91 42 0.0 0.026
25 16:00 55.9 54.8 96 E 11 G 15 29.80 1009.0 0.21 0.50 44 0.0 0.024
25 15:00 56.2 54.8 95 ESE 10 G 21 29.85 1011.0 0.07 0.29 79 0.5 0.022
25 14:00 55.7 54.3 58.0 51.8 95 ESE 7 G 17 29.90 1012.5 0.06 0.10 0.14 0.22 105 0.9 0.020
25 13:00 56.0 54.6 95 ESE 7 G 11 29.93 1013.5 0.03 0.16 83 0.6 0.018
25 12:00 56.3 54.6 94 ESE 11 G 18 29.97 1015.0 0.01 0.13 128 1.1 0.014
25 11:00 57.7 54.8 90 ESE 11 G 16 30.01 1016.3 0.04 0.12 258 2.0 0.009
25 10:00 55.0 53.6 95 SE 9 G 14 30.03 1017.0 0.02 0.12 253 1.7 0.006
25 09:00 53.2 51.8 95 ESE 6 G 14 30.06 1017.9 0.02 0.10 54 0.0 0.005
25 08:00 51.8 50.1 51.8 45.4 94 ESE 5 G 12 30.08 1018.7 0.03 0.08 0.08 0.08 47 0.0 0.004
25 07:00 48.6 47.5 96 E 2 G 4 30.10 1019.2 0.02 0.05 44 0.0 0.004
25 06:00 45.5 43.3 92 Calm 30.10 1019.4 0.03 0.03 0 0.0 0.004
25 05:00 45.9 40.4 81 Calm 30.11 1019.6 0.00 0 0.0 0.004
25 04:00 46.1 40.3 80 Calm 30.14 1020.5 0.00 0 0.0 0.003
25 03:00 47.4 40.2 76 E 0 G 3 30.16 1021.3 0.00 0 0.0 0.002
25 02:00 46.9 39.7 53.5 46.8 76 Calm 30.19 1022.4 0.00 0 0.0 0.001
25 01:00 48.2 38.5 69 SSE 0 G 2 30.22 1023.5 0.00 0 0.0 0.000
25 00:00 49.0 38.5 67 SSE 0 G 3 30.24 1024.0 0.00 0 0.0 0.189
24 23:00 50.3 38.6 64 SSE 0 G 2 30.26 1024.8 0.00 0 0.0 0.188
24 22:00 50.1 40.7 70 SE 2 G 4 30.28 1025.3 0.00 0 0.0 0.187
24 21:00 51.5 41.3 68 SSE 6 G 13 30.29 1025.6 0.00 0 0.0 0.185
24 20:00 53.5 37.7 63.2 53.5 55 S 4 G 8 30.27 1025.2 0.00 0 0.0 0.183
24 19:00 54.9 38.6 54 SSE 5 G 11 30.27 1025.0 0.00 28 0.0 0.180
24 18:00 56.7 39.3 52 S 5 G 13 30.29 1025.7 0.00 113 0.0 0.172
24 17:00 59.7 37.8 44 S 5 G 20 30.30 1025.9 0.00 309 1.2 0.157
24 16:00 61.2 39.1 44 SSW 12 G 20 30.30 1026.1 0.00 591 2.7 0.141
24 15:00 62.2 41.7 47 SSE 13 G 21 30.32 1026.8 0.00 765 4.6 0.120
24 14:00 63.2 42.7 63.8 47.7 47 SSE 10 G 20 30.33 1027.2 0.00 881 6.0 0.096
24 13:00 62.9 41.8 46 S 7 G 18 30.35 1027.8 0.00 911 7.0 0.073
24 12:00 62.8 38.8 41 S 6 G 13 30.36 1028.3 0.00 916 6.9 0.051
24 11:00 60.6 39.7 46 SW 6 G 18 30.40 1029.4 0.00 870 5.7 0.031
24 10:00 58.6 35.6 42 SSW 5 G 16 30.41 1029.7 0.00 715 3.9 0.016
24 09:00 53.8 40.2 60 SSW 9 G 14 30.42 1030.2 0.00 471 1.9 0.006
24 08:00 47.7 41.8 47.7 28.5 80 SSW 5 G 9 30.42 1030.1 0.00 425 1.0 0.001
24 07:00 32.6 31.3 95 Calm 30.42 1030.0 0.00 207 0.0 0.000
24 06:00 28.7 27.2 94 Calm 30.40 1029.6 0.00 5 0.0 0.000
24 05:00 29.2 27.4 93 Calm 30.40 1029.5 0.00 0 0.0 0.000
24 04:00 29.8 28.0 93 Calm 30.41 1029.8 0.00 0 0.0 0.000
24 03:00 30.6 28.3 91 Calm 30.41 1029.8 0.00 0 0.0 0.000
24 02:00 31.6 29.0 49.8 31.6 90 Calm 30.41 1029.9 0.00 0 0.0 0.000
24 01:00 32.5 29.1 87 Calm 30.43 1030.5 0.00 0 0.0 0.000
24 00:00 34.0 29.1 82 S 0 G 1 30.44 1030.8 0.00 0 0.0 0.194
23 23:00 37.7 31.1 77 S 0 G 3 30.43 1030.6 0.00 0 0.0 0.193
23 22:00 41.8 29.7 62 S 1 G 3 30.45 1031.3 0.00 0 0.0 0.191
23 21:00 46.9 28.2 48 S 3 G 5 30.46 1031.4 0.00 0 0.0 0.189

Data generated by WxSolution Version 1.9.1.3, Build 2018.04.19.